sensor_id;sensor_type;location;lat;lon;timestamp;temperature;humidity
80824;SHT35;70538;59.122;37.876;2023-07-13T00:00:58;13.83;77.96
80824;SHT35;70538;59.122;37.876;2023-07-13T00:03:26;13.83;78.12
80824;SHT35;70538;59.122;37.876;2023-07-13T00:06:00;13.86;78.20
80824;SHT35;70538;59.122;37.876;2023-07-13T00:08:31;13.86;78.16
80824;SHT35;70538;59.122;37.876;2023-07-13T00:11:01;13.86;78.12
80824;SHT35;70538;59.122;37.876;2023-07-13T00:13:30;13.86;78.09
80824;SHT35;70538;59.122;37.876;2023-07-13T00:15:58;13.83;78.12
80824;SHT35;70538;59.122;37.876;2023-07-13T00:18:27;13.82;78.18
80824;SHT35;70538;59.122;37.876;2023-07-13T00:20:58;13.82;78.35
80824;SHT35;70538;59.122;37.876;2023-07-13T00:23:38;13.78;78.21
80824;SHT35;70538;59.122;37.876;2023-07-13T00:26:09;13.75;78.59
80824;SHT35;70538;59.122;37.876;2023-07-13T00:28:39;13.81;78.69
80824;SHT35;70538;59.122;37.876;2023-07-13T00:31:09;13.81;78.32
80824;SHT35;70538;59.122;37.876;2023-07-13T00:33:37;13.79;78.46
80824;SHT35;70538;59.122;37.876;2023-07-13T00:36:05;13.85;78.57
80824;SHT35;70538;59.122;37.876;2023-07-13T00:38:34;13.86;78.59
80824;SHT35;70538;59.122;37.876;2023-07-13T00:41:02;13.88;78.61
80824;SHT35;70538;59.122;37.876;2023-07-13T00:43:31;13.86;78.24
80824;SHT35;70538;59.122;37.876;2023-07-13T00:46:28;13.85;78.37
80824;SHT35;70538;59.122;37.876;2023-07-13T00:49:00;13.78;78.49
80824;SHT35;70538;59.122;37.876;2023-07-13T00:51:35;13.78;78.55
80824;SHT35;70538;59.122;37.876;2023-07-13T00:54:07;13.78;78.25
80824;SHT35;70538;59.122;37.876;2023-07-13T00:56:40;13.78;78.35
80824;SHT35;70538;59.122;37.876;2023-07-13T00:59:11;13.77;78.38
80824;SHT35;70538;59.122;37.876;2023-07-13T01:01:39;13.79;78.41
80824;SHT35;70538;59.122;37.876;2023-07-13T01:04:07;13.81;78.51
80824;SHT35;70538;59.122;37.876;2023-07-13T01:06:37;13.83;78.45
80824;SHT35;70538;59.122;37.876;2023-07-13T01:09:07;13.89;78.39
80824;SHT35;70538;59.122;37.876;2023-07-13T01:11:35;13.91;78.25
80824;SHT35;70538;59.122;37.876;2023-07-13T01:14:03;13.92;78.13
80824;SHT35;70538;59.122;37.876;2023-07-13T01:16:33;13.89;77.97
80824;SHT35;70538;59.122;37.876;2023-07-13T01:19:08;13.85;78.06
80824;SHT35;70538;59.122;37.876;2023-07-13T01:21:41;13.79;78.24
80824;SHT35;70538;59.122;37.876;2023-07-13T01:24:10;13.77;78.27
80824;SHT35;70538;59.122;37.876;2023-07-13T01:26:38;13.72;78.41
80824;SHT35;70538;59.122;37.876;2023-07-13T01:29:06;13.68;78.61
80824;SHT35;70538;59.122;37.876;2023-07-13T01:31:35;13.64;78.66
80824;SHT35;70538;59.122;37.876;2023-07-13T01:34:03;13.58;78.72
80824;SHT35;70538;59.122;37.876;2023-07-13T01:36:31;13.55;78.90
80824;SHT35;70538;59.122;37.876;2023-07-13T01:38:59;13.54;78.97
80824;SHT35;70538;59.122;37.876;2023-07-13T01:41:27;13.51;79.06
80824;SHT35;70538;59.122;37.876;2023-07-13T01:44:00;13.51;79.18
80824;SHT35;70538;59.122;37.876;2023-07-13T01:46:28;13.51;79.32
80824;SHT35;70538;59.122;37.876;2023-07-13T01:48:56;13.50;79.36
80824;SHT35;70538;59.122;37.876;2023-07-13T01:51:24;13.51;79.37
80824;SHT35;70538;59.122;37.876;2023-07-13T01:53:52;13.50;79.43
80824;SHT35;70538;59.122;37.876;2023-07-13T01:56:20;13.55;79.43
80824;SHT35;70538;59.122;37.876;2023-07-13T01:58:48;13.54;79.27
80824;SHT35;70538;59.122;37.876;2023-07-13T02:01:16;13.55;79.18
80824;SHT35;70538;59.122;37.876;2023-07-13T02:03:44;13.58;79.13
80824;SHT35;70538;59.122;37.876;2023-07-13T02:06:13;13.57;78.99
80824;SHT35;70538;59.122;37.876;2023-07-13T02:08:41;13.54;78.95
80824;SHT35;70538;59.122;37.876;2023-07-13T02:11:10;13.51;79.03
80824;SHT35;70538;59.122;37.876;2023-07-13T02:13:38;13.47;79.17
80824;SHT35;70538;59.122;37.876;2023-07-13T02:16:07;13.44;79.28
80824;SHT35;70538;59.122;37.876;2023-07-13T02:18:35;13.46;79.27
80824;SHT35;70538;59.122;37.876;2023-07-13T02:21:03;13.46;79.13
80824;SHT35;70538;59.122;37.876;2023-07-13T02:23:31;13.42;79.18
80824;SHT35;70538;59.122;37.876;2023-07-13T02:26:03;13.40;79.21
80824;SHT35;70538;59.122;37.876;2023-07-13T02:28:31;13.40;79.37
80824;SHT35;70538;59.122;37.876;2023-07-13T02:31:11;13.39;79.44
80824;SHT35;70538;59.122;37.876;2023-07-13T02:33:39;13.34;79.59
80824;SHT35;70538;59.122;37.876;2023-07-13T02:36:07;13.30;79.58
80824;SHT35;70538;59.122;37.876;2023-07-13T02:38:36;13.26;79.57
80824;SHT35;70538;59.122;37.876;2023-07-13T02:41:06;13.26;79.66
80824;SHT35;70538;59.122;37.876;2023-07-13T02:43:37;13.27;79.77
80824;SHT35;70538;59.122;37.876;2023-07-13T02:46:05;13.28;79.75
80824;SHT35;70538;59.122;37.876;2023-07-13T02:48:38;13.28;79.72
80824;SHT35;70538;59.122;37.876;2023-07-13T02:51:06;13.24;79.60
80824;SHT35;70538;59.122;37.876;2023-07-13T02:53:36;13.23;79.89
80824;SHT35;70538;59.122;37.876;2023-07-13T02:56:05;13.23;79.77
80824;SHT35;70538;59.122;37.876;2023-07-13T02:58:33;13.22;79.75
80824;SHT35;70538;59.122;37.876;2023-07-13T03:01:09;13.23;79.81
80824;SHT35;70538;59.122;37.876;2023-07-13T03:03:37;13.23;79.76
80824;SHT35;70538;59.122;37.876;2023-07-13T03:06:06;13.24;79.63
80824;SHT35;70538;59.122;37.876;2023-07-13T03:08:37;13.24;79.58
80824;SHT35;70538;59.122;37.876;2023-07-13T03:11:25;13.26;79.56
80824;SHT35;70538;59.122;37.876;2023-07-13T03:13:55;13.26;79.47
80824;SHT35;70538;59.122;37.876;2023-07-13T03:16:23;13.27;79.53
80824;SHT35;70538;59.122;37.876;2023-07-13T03:18:51;13.32;79.44
80824;SHT35;70538;59.122;37.876;2023-07-13T03:21:19;13.34;79.26
80824;SHT35;70538;59.122;37.876;2023-07-13T03:23:47;13.32;79.12
80824;SHT35;70538;59.122;37.876;2023-07-13T03:26:18;13.33;79.24
80824;SHT35;70538;59.122;37.876;2023-07-13T03:28:47;13.30;79.07
80824;SHT35;70538;59.122;37.876;2023-07-13T03:31:21;13.27;79.21
80824;SHT35;70538;59.122;37.876;2023-07-13T03:33:52;13.23;79.42
80824;SHT35;70538;59.122;37.876;2023-07-13T03:36:23;13.27;79.45
80824;SHT35;70538;59.122;37.876;2023-07-13T03:38:53;13.24;79.36
80824;SHT35;70538;59.122;37.876;2023-07-13T03:41:22;13.23;79.62
80824;SHT35;70538;59.122;37.876;2023-07-13T03:43:51;13.22;79.83
80824;SHT35;70538;59.122;37.876;2023-07-13T03:46:19;13.17;79.95
80824;SHT35;70538;59.122;37.876;2023-07-13T03:48:47;13.16;80.07
80824;SHT35;70538;59.122;37.876;2023-07-13T03:51:17;13.19;80.16
80824;SHT35;70538;59.122;37.876;2023-07-13T03:53:46;13.16;80.38
80824;SHT35;70538;59.122;37.876;2023-07-13T03:56:16;13.17;80.19
80824;SHT35;70538;59.122;37.876;2023-07-13T03:58:47;13.15;80.38
80824;SHT35;70538;59.122;37.876;2023-07-13T04:01:17;13.15;80.47
80824;SHT35;70538;59.122;37.876;2023-07-13T04:03:46;13.15;80.34
80824;SHT35;70538;59.122;37.876;2023-07-13T04:06:18;13.15;80.26
80824;SHT35;70538;59.122;37.876;2023-07-13T04:08:52;13.15;80.17
80824;SHT35;70538;59.122;37.876;2023-07-13T04:11:22;13.17;80.28
80824;SHT35;70538;59.122;37.876;2023-07-13T04:13:51;13.13;80.31
80824;SHT35;70538;59.122;37.876;2023-07-13T04:16:20;13.13;80.36
80824;SHT35;70538;59.122;37.876;2023-07-13T04:18:49;13.19;80.41
80824;SHT35;70538;59.122;37.876;2023-07-13T04:21:17;13.20;80.21
80824;SHT35;70538;59.122;37.876;2023-07-13T04:23:45;13.20;80.28
80824;SHT35;70538;59.122;37.876;2023-07-13T04:26:13;13.22;80.16
80824;SHT35;70538;59.122;37.876;2023-07-13T04:28:41;13.22;80.28
80824;SHT35;70538;59.122;37.876;2023-07-13T04:31:09;13.17;80.23
80824;SHT35;70538;59.122;37.876;2023-07-13T04:33:37;13.17;80.40
80824;SHT35;70538;59.122;37.876;2023-07-13T04:36:06;13.17;80.43
80824;SHT35;70538;59.122;37.876;2023-07-13T04:38:37;13.17;80.54
80824;SHT35;70538;59.122;37.876;2023-07-13T04:41:06;13.17;80.46
80824;SHT35;70538;59.122;37.876;2023-07-13T04:43:36;13.17;80.61
80824;SHT35;70538;59.122;37.876;2023-07-13T04:46:10;13.17;80.52
80824;SHT35;70538;59.122;37.876;2023-07-13T04:48:39;13.19;80.71
80824;SHT35;70538;59.122;37.876;2023-07-13T04:51:08;13.24;80.33
80824;SHT35;70538;59.122;37.876;2023-07-13T04:53:36;13.20;80.24
80824;SHT35;70538;59.122;37.876;2023-07-13T04:56:04;13.23;80.50
80824;SHT35;70538;59.122;37.876;2023-07-13T04:58:33;13.23;80.41
80824;SHT35;70538;59.122;37.876;2023-07-13T05:01:06;13.24;80.51
80824;SHT35;70538;59.122;37.876;2023-07-13T05:03:35;13.27;80.48
80824;SHT35;70538;59.122;37.876;2023-07-13T05:06:05;13.30;80.50
80824;SHT35;70538;59.122;37.876;2023-07-13T05:08:34;13.33;80.38
80824;SHT35;70538;59.122;37.876;2023-07-13T05:11:03;13.33;80.34
80824;SHT35;70538;59.122;37.876;2023-07-13T05:13:31;13.33;80.31
80824;SHT35;70538;59.122;37.876;2023-07-13T05:16:06;13.34;80.38
80824;SHT35;70538;59.122;37.876;2023-07-13T05:18:36;13.33;80.58
80824;SHT35;70538;59.122;37.876;2023-07-13T05:21:09;13.39;80.54
80824;SHT35;70538;59.122;37.876;2023-07-13T05:23:39;13.34;80.48
80824;SHT35;70538;59.122;37.876;2023-07-13T05:26:10;13.30;80.83
80824;SHT35;70538;59.122;37.876;2023-07-13T05:28:38;13.28;80.91
80824;SHT35;70538;59.122;37.876;2023-07-13T05:31:08;13.28;81.18
80824;SHT35;70538;59.122;37.876;2023-07-13T05:33:37;13.27;81.27
80824;SHT35;70538;59.122;37.876;2023-07-13T05:36:05;13.27;81.40
80824;SHT35;70538;59.122;37.876;2023-07-13T05:38:34;13.26;81.38
80824;SHT35;70538;59.122;37.876;2023-07-13T05:41:02;13.30;81.55
80824;SHT35;70538;59.122;37.876;2023-07-13T05:43:33;13.27;81.43
80824;SHT35;70538;59.122;37.876;2023-07-13T05:46:01;13.30;81.48
80824;SHT35;70538;59.122;37.876;2023-07-13T05:48:29;13.30;81.38
80824;SHT35;70538;59.122;37.876;2023-07-13T05:50:57;13.30;81.28
80824;SHT35;70538;59.122;37.876;2023-07-13T05:53:25;13.34;81.68
80824;SHT35;70538;59.122;37.876;2023-07-13T05:55:54;13.40;81.60
80824;SHT35;70538;59.122;37.876;2023-07-13T05:58:22;13.44;81.51
80824;SHT35;70538;59.122;37.876;2023-07-13T06:00:59;13.48;81.56
80824;SHT35;70538;59.122;37.876;2023-07-13T06:03:27;13.54;81.50
80824;SHT35;70538;59.122;37.876;2023-07-13T06:05:55;13.57;81.45
80824;SHT35;70538;59.122;37.876;2023-07-13T06:08:24;13.62;81.39
80824;SHT35;70538;59.122;37.876;2023-07-13T06:10:52;13.65;80.98
80824;SHT35;70538;59.122;37.876;2023-07-13T06:13:21;13.61;80.77
80824;SHT35;70538;59.122;37.876;2023-07-13T06:15:50;13.62;80.75
80824;SHT35;70538;59.122;37.876;2023-07-13T06:18:18;13.60;80.63
80824;SHT35;70538;59.122;37.876;2023-07-13T06:20:46;13.57;80.80
80824;SHT35;70538;59.122;37.876;2023-07-13T06:23:14;13.60;80.78
80824;SHT35;70538;59.122;37.876;2023-07-13T06:25:43;13.62;80.92
80824;SHT35;70538;59.122;37.876;2023-07-13T06:28:12;13.67;80.57
80824;SHT35;70538;59.122;37.876;2023-07-13T06:30:40;13.68;80.50
80824;SHT35;70538;59.122;37.876;2023-07-13T06:33:08;13.71;80.57
80824;SHT35;70538;59.122;37.876;2023-07-13T06:35:36;13.77;80.55
80824;SHT35;70538;59.122;37.876;2023-07-13T06:38:04;13.79;80.44
80824;SHT35;70538;59.122;37.876;2023-07-13T06:40:32;13.81;80.60
80824;SHT35;70538;59.122;37.876;2023-07-13T06:43:00;13.88;80.53
80824;SHT35;70538;59.122;37.876;2023-07-13T06:45:28;13.92;80.42
80824;SHT35;70538;59.122;37.876;2023-07-13T06:47:56;13.97;80.24
80824;SHT35;70538;59.122;37.876;2023-07-13T06:50:24;13.94;80.31
80824;SHT35;70538;59.122;37.876;2023-07-13T06:52:52;13.97;80.13
80824;SHT35;70538;59.122;37.876;2023-07-13T06:55:20;13.97;79.75
80824;SHT35;70538;59.122;37.876;2023-07-13T06:57:48;13.92;79.96
80824;SHT35;70538;59.122;37.876;2023-07-13T07:00:17;13.94;80.06
80824;SHT35;70538;59.122;37.876;2023-07-13T07:02:45;13.95;80.07
80824;SHT35;70538;59.122;37.876;2023-07-13T07:05:13;13.98;80.14
80824;SHT35;70538;59.122;37.876;2023-07-13T07:07:41;13.99;80.07
80824;SHT35;70538;59.122;37.876;2023-07-13T07:10:09;14.02;79.99
80824;SHT35;70538;59.122;37.876;2023-07-13T07:12:37;14.01;79.80
80824;SHT35;70538;59.122;37.876;2023-07-13T07:15:05;13.99;79.83
80824;SHT35;70538;59.122;37.876;2023-07-13T07:17:33;13.99;79.87
80824;SHT35;70538;59.122;37.876;2023-07-13T07:20:02;14.02;79.96
80824;SHT35;70538;59.122;37.876;2023-07-13T07:22:31;14.08;80.08
80824;SHT35;70538;59.122;37.876;2023-07-13T07:25:00;14.13;79.42
80824;SHT35;70538;59.122;37.876;2023-07-13T07:27:28;14.15;79.40
80824;SHT35;70538;59.122;37.876;2023-07-13T07:29:59;14.10;79.53
80824;SHT35;70538;59.122;37.876;2023-07-13T07:32:32;14.13;79.58
80824;SHT35;70538;59.122;37.876;2023-07-13T07:35:04;14.15;79.53
80824;SHT35;70538;59.122;37.876;2023-07-13T07:37:32;14.16;79.44
80824;SHT35;70538;59.122;37.876;2023-07-13T07:40:03;14.17;79.52
80824;SHT35;70538;59.122;37.876;2023-07-13T07:42:35;14.17;79.62
80824;SHT35;70538;59.122;37.876;2023-07-13T07:45:03;14.16;79.65
80824;SHT35;70538;59.122;37.876;2023-07-13T07:47:32;14.20;79.53
80824;SHT35;70538;59.122;37.876;2023-07-13T07:50:00;14.20;79.56
80824;SHT35;70538;59.122;37.876;2023-07-13T07:52:30;14.26;79.32
80824;SHT35;70538;59.122;37.876;2023-07-13T07:54:58;14.23;79.46
80824;SHT35;70538;59.122;37.876;2023-07-13T07:57:30;14.27;79.54
80824;SHT35;70538;59.122;37.876;2023-07-13T08:00:18;14.30;79.36
80824;SHT35;70538;59.122;37.876;2023-07-13T08:02:49;14.29;79.30
80824;SHT35;70538;59.122;37.876;2023-07-13T08:05:21;14.29;79.32
80824;SHT35;70538;59.122;37.876;2023-07-13T08:08:05;14.29;79.06
80824;SHT35;70538;59.122;37.876;2023-07-13T08:10:35;14.29;79.12
80824;SHT35;70538;59.122;37.876;2023-07-13T08:13:04;14.27;79.17
80824;SHT35;70538;59.122;37.876;2023-07-13T08:15:36;14.32;79.25
80824;SHT35;70538;59.122;37.876;2023-07-13T08:18:04;14.26;78.76
80824;SHT35;70538;59.122;37.876;2023-07-13T08:20:32;14.25;79.11
80824;SHT35;70538;59.122;37.876;2023-07-13T08:23:01;14.27;79.26
80824;SHT35;70538;59.122;37.876;2023-07-13T08:25:29;14.33;79.33
80824;SHT35;70538;59.122;37.876;2023-07-13T08:27:57;14.33;79.08
80824;SHT35;70538;59.122;37.876;2023-07-13T08:30:25;14.33;79.31
80824;SHT35;70538;59.122;37.876;2023-07-13T08:32:53;14.37;79.35
80824;SHT35;70538;59.122;37.876;2023-07-13T08:35:21;14.36;79.23
80824;SHT35;70538;59.122;37.876;2023-07-13T08:37:49;14.33;79.49
80824;SHT35;70538;59.122;37.876;2023-07-13T08:40:19;14.33;79.58
80824;SHT35;70538;59.122;37.876;2023-07-13T08:42:57;14.40;79.51
80824;SHT35;70538;59.122;37.876;2023-07-13T08:45:48;14.40;79.37
80824;SHT35;70538;59.122;37.876;2023-07-13T08:48:38;14.36;79.19
80824;SHT35;70538;59.122;37.876;2023-07-13T08:54:28;14.36;79.50
80824;SHT35;70538;59.122;37.876;2023-07-13T08:57:01;14.36;79.41
80824;SHT35;70538;59.122;37.876;2023-07-13T08:59:32;14.38;79.52
80824;SHT35;70538;59.122;37.876;2023-07-13T09:04:36;14.48;79.51
80824;SHT35;70538;59.122;37.876;2023-07-13T09:07:35;14.56;79.36
80824;SHT35;70538;59.122;37.876;2023-07-13T09:10:16;14.59;79.22
80824;SHT35;70538;59.122;37.876;2023-07-13T09:15:37;14.63;79.01
80824;SHT35;70538;59.122;37.876;2023-07-13T09:18:18;14.64;79.13
80824;SHT35;70538;59.122;37.876;2023-07-13T09:20:53;14.64;78.69
80824;SHT35;70538;59.122;37.876;2023-07-13T09:23:23;14.63;78.84
80824;SHT35;70538;59.122;37.876;2023-07-13T09:26:02;14.67;78.87
80824;SHT35;70538;59.122;37.876;2023-07-13T09:28:39;14.67;78.50
80824;SHT35;70538;59.122;37.876;2023-07-13T09:31:14;14.70;78.69
80824;SHT35;70538;59.122;37.876;2023-07-13T09:33:44;14.71;78.80
80824;SHT35;70538;59.122;37.876;2023-07-13T09:41:50;14.77;78.99
80824;SHT35;70538;59.122;37.876;2023-07-13T09:44:29;14.78;78.95
80824;SHT35;70538;59.122;37.876;2023-07-13T09:47:00;14.81;78.57
80824;SHT35;70538;59.122;37.876;2023-07-13T09:49:34;14.81;78.81
80824;SHT35;70538;59.122;37.876;2023-07-13T09:52:06;14.80;78.84
80824;SHT35;70538;59.122;37.876;2023-07-13T09:54:36;14.80;78.71
80824;SHT35;70538;59.122;37.876;2023-07-13T09:57:15;14.78;78.68
80824;SHT35;70538;59.122;37.876;2023-07-13T09:59:49;14.77;78.97
80824;SHT35;70538;59.122;37.876;2023-07-13T10:02:32;14.80;79.20
80824;SHT35;70538;59.122;37.876;2023-07-13T10:05:03;14.81;78.94
80824;SHT35;70538;59.122;37.876;2023-07-13T10:07:35;14.75;78.76
80824;SHT35;70538;59.122;37.876;2023-07-13T10:10:17;14.71;78.83
80824;SHT35;70538;59.122;37.876;2023-07-13T10:12:46;14.65;78.99
80824;SHT35;70538;59.122;37.876;2023-07-13T10:15:20;14.64;79.09
80824;SHT35;70538;59.122;37.876;2023-07-13T10:17:53;14.61;79.13
80824;SHT35;70538;59.122;37.876;2023-07-13T10:20:24;14.60;79.41
80824;SHT35;70538;59.122;37.876;2023-07-13T10:23:02;14.59;79.48
80824;SHT35;70538;59.122;37.876;2023-07-13T10:25:34;14.60;79.55
80824;SHT35;70538;59.122;37.876;2023-07-13T10:28:13;14.63;79.54
80824;SHT35;70538;59.122;37.876;2023-07-13T10:30:46;14.64;79.52
80824;SHT35;70538;59.122;37.876;2023-07-13T10:33:15;14.63;79.46
80824;SHT35;70538;59.122;37.876;2023-07-13T10:35:44;14.68;79.34
80824;SHT35;70538;59.122;37.876;2023-07-13T10:38:18;14.68;79.07
80824;SHT35;70538;59.122;37.876;2023-07-13T10:41:01;14.68;79.25
80824;SHT35;70538;59.122;37.876;2023-07-13T10:43:52;14.74;79.17
80824;SHT35;70538;59.122;37.876;2023-07-13T10:46:24;14.77;79.27
80824;SHT35;70538;59.122;37.876;2023-07-13T10:48:58;14.81;79.47
80824;SHT35;70538;59.122;37.876;2023-07-13T10:51:27;14.85;79.09
80824;SHT35;70538;59.122;37.876;2023-07-13T10:54:16;14.89;78.95
80824;SHT35;70538;59.122;37.876;2023-07-13T10:56:50;14.89;78.87
80824;SHT35;70538;59.122;37.876;2023-07-13T10:59:24;14.95;78.89
80824;SHT35;70538;59.122;37.876;2023-07-13T11:02:09;14.98;78.70
80824;SHT35;70538;59.122;37.876;2023-07-13T11:04:46;15.02;78.70
80824;SHT35;70538;59.122;37.876;2023-07-13T11:07:29;15.06;78.51
80824;SHT35;70538;59.122;37.876;2023-07-13T11:10:04;15.08;78.61
80824;SHT35;70538;59.122;37.876;2023-07-13T11:12:48;15.12;78.66
80824;SHT35;70538;59.122;37.876;2023-07-13T11:15:29;15.12;78.41
80824;SHT35;70538;59.122;37.876;2023-07-13T11:18:02;15.15;78.55
80824;SHT35;70538;59.122;37.876;2023-07-13T11:20:37;15.15;78.47
80824;SHT35;70538;59.122;37.876;2023-07-13T11:25:45;15.18;78.54
80824;SHT35;70538;59.122;37.876;2023-07-13T11:28:17;15.16;78.50
80824;SHT35;70538;59.122;37.876;2023-07-13T11:31:00;15.15;78.56
80824;SHT35;70538;59.122;37.876;2023-07-13T11:36:13;15.16;78.82
80824;SHT35;70538;59.122;37.876;2023-07-13T11:39:09;15.16;78.79
80824;SHT35;70538;59.122;37.876;2023-07-13T11:41:47;15.19;78.99
80824;SHT35;70538;59.122;37.876;2023-07-13T11:44:22;15.20;78.85
80824;SHT35;70538;59.122;37.876;2023-07-13T11:46:53;15.18;78.70
80824;SHT35;70538;59.122;37.876;2023-07-13T11:49:24;15.18;78.69
80824;SHT35;70538;59.122;37.876;2023-07-13T11:51:54;15.13;78.79
80824;SHT35;70538;59.122;37.876;2023-07-13T11:54:27;15.13;79.00
80824;SHT35;70538;59.122;37.876;2023-07-13T11:57:01;15.12;79.05
80824;SHT35;70538;59.122;37.876;2023-07-13T11:59:30;15.10;79.04
80824;SHT35;70538;59.122;37.876;2023-07-13T12:02:00;15.10;79.16
80824;SHT35;70538;59.122;37.876;2023-07-13T12:04:31;15.10;78.86
80824;SHT35;70538;59.122;37.876;2023-07-13T12:07:06;15.09;79.14
80824;SHT35;70538;59.122;37.876;2023-07-13T12:09:36;15.08;79.28
80824;SHT35;70538;59.122;37.876;2023-07-13T12:12:13;15.09;79.43
80824;SHT35;70538;59.122;37.876;2023-07-13T12:14:45;15.12;79.43
80824;SHT35;70538;59.122;37.876;2023-07-13T12:17:20;15.13;79.50
80824;SHT35;70538;59.122;37.876;2023-07-13T12:19:50;15.16;79.50
80824;SHT35;70538;59.122;37.876;2023-07-13T12:22:20;15.23;79.39
80824;SHT35;70538;59.122;37.876;2023-07-13T12:24:48;15.23;79.29
80824;SHT35;70538;59.122;37.876;2023-07-13T12:29:53;15.27;79.61
80824;SHT35;70538;59.122;37.876;2023-07-13T12:32:26;15.33;79.41
80824;SHT35;70538;59.122;37.876;2023-07-13T12:35:13;15.39;79.41
80824;SHT35;70538;59.122;37.876;2023-07-13T12:37:46;15.35;79.47
80824;SHT35;70538;59.122;37.876;2023-07-13T12:40:19;15.37;79.53
80824;SHT35;70538;59.122;37.876;2023-07-13T12:42:51;15.37;79.54
80824;SHT35;70538;59.122;37.876;2023-07-13T12:45:25;15.37;79.55
80824;SHT35;70538;59.122;37.876;2023-07-13T12:47:57;15.37;79.51
80824;SHT35;70538;59.122;37.876;2023-07-13T12:50:40;15.35;79.70
80824;SHT35;70538;59.122;37.876;2023-07-13T12:53:19;15.30;79.99
80824;SHT35;70538;59.122;37.876;2023-07-13T12:55:50;15.36;80.03
80824;SHT35;70538;59.122;37.876;2023-07-13T13:00:59;15.43;79.87
80824;SHT35;70538;59.122;37.876;2023-07-13T13:03:37;15.47;79.69
80824;SHT35;70538;59.122;37.876;2023-07-13T13:06:21;15.50;79.71
80824;SHT35;70538;59.122;37.876;2023-07-13T13:08:53;15.50;79.67
80824;SHT35;70538;59.122;37.876;2023-07-13T13:11:23;15.51;79.73
80824;SHT35;70538;59.122;37.876;2023-07-13T13:13:51;15.53;79.61
80824;SHT35;70538;59.122;37.876;2023-07-13T13:18:51;15.49;79.45
80824;SHT35;70538;59.122;37.876;2023-07-13T13:21:20;15.46;79.48
80824;SHT35;70538;59.122;37.876;2023-07-13T13:23:49;15.42;79.83
80824;SHT35;70538;59.122;37.876;2023-07-13T13:26:20;15.42;79.97
80824;SHT35;70538;59.122;37.876;2023-07-13T13:28:49;15.42;80.06
80824;SHT35;70538;59.122;37.876;2023-07-13T13:31:17;15.46;80.11
80824;SHT35;70538;59.122;37.876;2023-07-13T13:33:45;15.46;80.13
80824;SHT35;70538;59.122;37.876;2023-07-13T13:36:17;15.50;80.14
80824;SHT35;70538;59.122;37.876;2023-07-13T13:38:48;15.55;80.24
80824;SHT35;70538;59.122;37.876;2023-07-13T13:41:17;15.58;80.13
80824;SHT35;70538;59.122;37.876;2023-07-13T13:43:46;15.64;80.08
80824;SHT35;70538;59.122;37.876;2023-07-13T13:46:17;15.71;79.85
80824;SHT35;70538;59.122;37.876;2023-07-13T13:48:46;15.73;79.77
80824;SHT35;70538;59.122;37.876;2023-07-13T13:51:19;15.71;79.69
80824;SHT35;70538;59.122;37.876;2023-07-13T13:53:48;15.73;79.67
80824;SHT35;70538;59.122;37.876;2023-07-13T13:56:18;15.75;79.72
80824;SHT35;70538;59.122;37.876;2023-07-13T13:58:46;15.78;79.64
80824;SHT35;70538;59.122;37.876;2023-07-13T14:01:21;15.80;79.64
80824;SHT35;70538;59.122;37.876;2023-07-13T14:03:51;15.81;79.57
80824;SHT35;70538;59.122;37.876;2023-07-13T14:06:19;15.80;79.56
80824;SHT35;70538;59.122;37.876;2023-07-13T14:08:48;15.78;79.43
80824;SHT35;70538;59.122;37.876;2023-07-13T14:11:19;15.75;79.56
80824;SHT35;70538;59.122;37.876;2023-07-13T14:13:50;15.78;79.59
80824;SHT35;70538;59.122;37.876;2023-07-13T14:16:20;15.77;79.60
80824;SHT35;70538;59.122;37.876;2023-07-13T14:18:49;15.80;79.56
80824;SHT35;70538;59.122;37.876;2023-07-13T14:21:20;15.82;79.41
80824;SHT35;70538;59.122;37.876;2023-07-13T14:23:49;15.82;79.43
80824;SHT35;70538;59.122;37.876;2023-07-13T14:26:20;15.82;79.22
80824;SHT35;70538;59.122;37.876;2023-07-13T14:28:52;15.88;79.19
80824;SHT35;70538;59.122;37.876;2023-07-13T14:31:22;15.94;79.27
80824;SHT35;70538;59.122;37.876;2023-07-13T14:33:55;15.98;79.01
80824;SHT35;70538;59.122;37.876;2023-07-13T14:36:26;16.02;78.66
80824;SHT35;70538;59.122;37.876;2023-07-13T14:38:55;16.02;78.49
80824;SHT35;70538;59.122;37.876;2023-07-13T14:41:24;16.08;78.39
80824;SHT35;70538;59.122;37.876;2023-07-13T14:43:52;16.13;77.76
80824;SHT35;70538;59.122;37.876;2023-07-13T14:46:30;16.13;77.65
80824;SHT35;70538;59.122;37.876;2023-07-13T14:49:02;16.15;77.65
80824;SHT35;70538;59.122;37.876;2023-07-13T14:51:33;16.16;77.84
80824;SHT35;70538;59.122;37.876;2023-07-13T14:54:04;16.20;77.63
80824;SHT35;70538;59.122;37.876;2023-07-13T14:56:32;16.23;77.51
80824;SHT35;70538;59.122;37.876;2023-07-13T14:59:00;16.25;77.46
80824;SHT35;70538;59.122;37.876;2023-07-13T15:01:28;16.27;77.19
80824;SHT35;70538;59.122;37.876;2023-07-13T15:03:58;16.29;77.12
80824;SHT35;70538;59.122;37.876;2023-07-13T15:06:26;16.32;77.15
80824;SHT35;70538;59.122;37.876;2023-07-13T15:08:54;16.33;77.12
80824;SHT35;70538;59.122;37.876;2023-07-13T15:11:23;16.36;77.22
80824;SHT35;70538;59.122;37.876;2023-07-13T15:13:51;16.33;77.18
80824;SHT35;70538;59.122;37.876;2023-07-13T15:16:24;16.39;77.04
80824;SHT35;70538;59.122;37.876;2023-07-13T15:18:53;16.40;76.93
80824;SHT35;70538;59.122;37.876;2023-07-13T15:21:23;16.40;77.00
80824;SHT35;70538;59.122;37.876;2023-07-13T15:23:52;16.40;76.89
80824;SHT35;70538;59.122;37.876;2023-07-13T15:26:20;16.42;77.14
80824;SHT35;70538;59.122;37.876;2023-07-13T15:28:48;16.46;77.15
80824;SHT35;70538;59.122;37.876;2023-07-13T15:31:23;16.50;77.08
80824;SHT35;70538;59.122;37.876;2023-07-13T15:33:53;16.61;77.05
80824;SHT35;70538;59.122;37.876;2023-07-13T15:36:23;16.67;76.99
80824;SHT35;70538;59.122;37.876;2023-07-13T15:38:54;16.75;76.79
80824;SHT35;70538;59.122;37.876;2023-07-13T15:41:27;16.80;76.65
80824;SHT35;70538;59.122;37.876;2023-07-13T15:43:58;16.75;76.71
80824;SHT35;70538;59.122;37.876;2023-07-13T15:46:27;16.77;76.66
80824;SHT35;70538;59.122;37.876;2023-07-13T15:48:57;16.75;76.77
80824;SHT35;70538;59.122;37.876;2023-07-13T15:51:29;16.84;76.55
80824;SHT35;70538;59.122;37.876;2023-07-13T15:54:00;16.89;76.21
80824;SHT35;70538;59.122;37.876;2023-07-13T15:56:35;16.92;76.18
80824;SHT35;70538;59.122;37.876;2023-07-13T15:59:03;16.96;76.04
80824;SHT35;70538;59.122;37.876;2023-07-13T16:01:32;16.98;75.90
80824;SHT35;70538;59.122;37.876;2023-07-13T16:04:00;16.98;75.87
80824;SHT35;70538;59.122;37.876;2023-07-13T16:06:32;17.00;75.83